sensor_id;sensor_type;location;lat;lon;timestamp;P1;durP1;ratioP1;P2;durP2;ratioP2
12493;SDS011;8260;51.422;6.786;2022-10-31T00:01:54;13.40;;;11.23;;
12493;SDS011;8260;51.422;6.786;2022-10-31T00:04:22;15.13;;;10.70;;
12493;SDS011;8260;51.422;6.786;2022-10-31T00:06:51;19.05;;;10.77;;
12493;SDS011;8260;51.422;6.786;2022-10-31T00:09:20;14.07;;;10.52;;
12493;SDS011;8260;51.422;6.786;2022-10-31T00:11:49;15.63;;;10.48;;
12493;SDS011;8260;51.422;6.786;2022-10-31T00:14:17;14.27;;;10.63;;
12493;SDS011;8260;51.422;6.786;2022-10-31T00:16:45;15.55;;;10.52;;
12493;SDS011;8260;51.422;6.786;2022-10-31T00:19:14;17.55;;;10.82;;
12493;SDS011;8260;51.422;6.786;2022-10-31T00:21:42;18.13;;;10.90;;
12493;SDS011;8260;51.422;6.786;2022-10-31T00:24:11;16.55;;;11.98;;
12493;SDS011;8260;51.422;6.786;2022-10-31T00:26:40;15.68;;;10.60;;
12493;SDS011;8260;51.422;6.786;2022-10-31T00:29:09;14.60;;;10.55;;
12493;SDS011;8260;51.422;6.786;2022-10-31T00:31:39;11.38;;;9.82;;
12493;SDS011;8260;51.422;6.786;2022-10-31T00:34:07;14.50;;;10.32;;
12493;SDS011;8260;51.422;6.786;2022-10-31T00:36:35;18.02;;;9.95;;
12493;SDS011;8260;51.422;6.786;2022-10-31T00:39:04;16.77;;;10.93;;
12493;SDS011;8260;51.422;6.786;2022-10-31T00:41:32;16.73;;;9.88;;
12493;SDS011;8260;51.422;6.786;2022-10-31T00:44:02;15.68;;;9.75;;
12493;SDS011;8260;51.422;6.786;2022-10-31T00:46:30;14.77;;;9.95;;
12493;SDS011;8260;51.422;6.786;2022-10-31T00:48:58;17.48;;;10.55;;
12493;SDS011;8260;51.422;6.786;2022-10-31T00:51:27;14.40;;;9.43;;
12493;SDS011;8260;51.422;6.786;2022-10-31T00:53:55;14.50;;;10.10;;
12493;SDS011;8260;51.422;6.786;2022-10-31T00:56:24;18.35;;;10.90;;
12493;SDS011;8260;51.422;6.786;2022-10-31T00:58:52;13.80;;;9.93;;
12493;SDS011;8260;51.422;6.786;2022-10-31T01:01:22;12.23;;;9.95;;
12493;SDS011;8260;51.422;6.786;2022-10-31T01:03:50;14.18;;;9.43;;
12493;SDS011;8260;51.422;6.786;2022-10-31T01:06:19;17.40;;;10.48;;
12493;SDS011;8260;51.422;6.786;2022-10-31T01:08:47;10.82;;;9.73;;
12493;SDS011;8260;51.422;6.786;2022-10-31T01:11:16;18.42;;;10.70;;
12493;SDS011;8260;51.422;6.786;2022-10-31T01:13:45;13.55;;;9.60;;
12493;SDS011;8260;51.422;6.786;2022-10-31T01:16:14;14.65;;;9.60;;
12493;SDS011;8260;51.422;6.786;2022-10-31T01:18:45;13.73;;;9.82;;
12493;SDS011;8260;51.422;6.786;2022-10-31T01:21:14;17.08;;;10.30;;
12493;SDS011;8260;51.422;6.786;2022-10-31T01:23:42;12.52;;;9.57;;
12493;SDS011;8260;51.422;6.786;2022-10-31T01:26:11;17.35;;;10.95;;
12493;SDS011;8260;51.422;6.786;2022-10-31T01:28:43;15.23;;;10.25;;
12493;SDS011;8260;51.422;6.786;2022-10-31T01:31:11;16.77;;;10.20;;
12493;SDS011;8260;51.422;6.786;2022-10-31T01:33:40;17.08;;;10.30;;
12493;SDS011;8260;51.422;6.786;2022-10-31T01:36:17;16.08;;;10.50;;
12493;SDS011;8260;51.422;6.786;2022-10-31T01:38:46;17.90;;;11.00;;
12493;SDS011;8260;51.422;6.786;2022-10-31T01:41:16;13.55;;;10.77;;
12493;SDS011;8260;51.422;6.786;2022-10-31T01:43:46;15.85;;;10.07;;
12493;SDS011;8260;51.422;6.786;2022-10-31T01:46:15;16.08;;;10.35;;
12493;SDS011;8260;51.422;6.786;2022-10-31T01:48:45;14.85;;;10.05;;
12493;SDS011;8260;51.422;6.786;2022-10-31T01:51:13;16.60;;;10.98;;
12493;SDS011;8260;51.422;6.786;2022-10-31T01:53:44;18.23;;;11.82;;
12493;SDS011;8260;51.422;6.786;2022-10-31T01:56:13;15.63;;;11.88;;
12493;SDS011;8260;51.422;6.786;2022-10-31T01:58:42;18.48;;;13.13;;
12493;SDS011;8260;51.422;6.786;2022-10-31T02:01:12;17.70;;;13.10;;
12493;SDS011;8260;51.422;6.786;2022-10-31T02:03:41;18.35;;;13.57;;
12493;SDS011;8260;51.422;6.786;2022-10-31T02:06:10;16.83;;;13.27;;
12493;SDS011;8260;51.422;6.786;2022-10-31T02:08:41;21.20;;;13.60;;
12493;SDS011;8260;51.422;6.786;2022-10-31T02:11:11;15.65;;;11.95;;
12493;SDS011;8260;51.422;6.786;2022-10-31T02:13:40;21.20;;;13.93;;
12493;SDS011;8260;51.422;6.786;2022-10-31T02:16:09;20.42;;;13.55;;
12493;SDS011;8260;51.422;6.786;2022-10-31T02:18:37;18.45;;;12.68;;
12493;SDS011;8260;51.422;6.786;2022-10-31T02:21:07;21.23;;;13.60;;
12493;SDS011;8260;51.422;6.786;2022-10-31T02:23:51;18.27;;;13.00;;
12493;SDS011;8260;51.422;6.786;2022-10-31T02:31:57;14.13;;;10.98;;
12493;SDS011;8260;51.422;6.786;2022-10-31T02:34:30;15.13;;;11.07;;
12493;SDS011;8260;51.422;6.786;2022-10-31T02:37:01;14.98;;;10.88;;
12493;SDS011;8260;51.422;6.786;2022-10-31T02:39:35;12.98;;;10.20;;
12493;SDS011;8260;51.422;6.786;2022-10-31T02:42:07;20.00;;;11.27;;
12493;SDS011;8260;51.422;6.786;2022-10-31T02:44:38;15.15;;;11.07;;
12493;SDS011;8260;51.422;6.786;2022-10-31T02:47:09;18.70;;;11.00;;
12493;SDS011;8260;51.422;6.786;2022-10-31T02:49:43;18.15;;;11.70;;
12493;SDS011;8260;51.422;6.786;2022-10-31T02:52:16;14.38;;;10.52;;
12493;SDS011;8260;51.422;6.786;2022-10-31T02:54:46;15.63;;;11.75;;
12493;SDS011;8260;51.422;6.786;2022-10-31T02:57:14;17.25;;;10.63;;
12493;SDS011;8260;51.422;6.786;2022-10-31T02:59:44;21.17;;;11.75;;
12493;SDS011;8260;51.422;6.786;2022-10-31T03:02:28;20.05;;;11.25;;
12493;SDS011;8260;51.422;6.786;2022-10-31T03:05:11;17.02;;;10.23;;
12493;SDS011;8260;51.422;6.786;2022-10-31T03:07:45;20.23;;;11.65;;
12493;SDS011;8260;51.422;6.786;2022-10-31T03:10:16;15.73;;;11.18;;
12493;SDS011;8260;51.422;6.786;2022-10-31T03:12:49;16.00;;;11.27;;
12493;SDS011;8260;51.422;6.786;2022-10-31T03:15:19;14.35;;;11.02;;
12493;SDS011;8260;51.422;6.786;2022-10-31T03:17:52;16.08;;;11.10;;
12493;SDS011;8260;51.422;6.786;2022-10-31T03:20:24;14.13;;;10.52;;
12493;SDS011;8260;51.422;6.786;2022-10-31T03:22:54;15.65;;;11.10;;
12493;SDS011;8260;51.422;6.786;2022-10-31T03:25:23;18.17;;;10.82;;
12493;SDS011;8260;51.422;6.786;2022-10-31T03:27:51;19.08;;;11.05;;
12493;SDS011;8260;51.422;6.786;2022-10-31T03:30:20;17.27;;;11.27;;
12493;SDS011;8260;51.422;6.786;2022-10-31T03:32:49;14.35;;;10.07;;
12493;SDS011;8260;51.422;6.786;2022-10-31T03:35:21;14.40;;;10.60;;
12493;SDS011;8260;51.422;6.786;2022-10-31T03:37:51;14.82;;;10.30;;
12493;SDS011;8260;51.422;6.786;2022-10-31T03:40:21;15.43;;;11.00;;
12493;SDS011;8260;51.422;6.786;2022-10-31T03:42:53;14.07;;;10.55;;
12493;SDS011;8260;51.422;6.786;2022-10-31T03:45:23;15.13;;;10.70;;
12493;SDS011;8260;51.422;6.786;2022-10-31T03:47:52;17.75;;;10.63;;
12493;SDS011;8260;51.422;6.786;2022-10-31T03:50:23;17.45;;;9.68;;
12493;SDS011;8260;51.422;6.786;2022-10-31T03:52:53;15.48;;;9.77;;
12493;SDS011;8260;51.422;6.786;2022-10-31T03:55:25;16.80;;;10.32;;
12493;SDS011;8260;51.422;6.786;2022-10-31T03:57:55;17.35;;;11.23;;
12493;SDS011;8260;51.422;6.786;2022-10-31T04:00:25;15.45;;;10.35;;
12493;SDS011;8260;51.422;6.786;2022-10-31T04:02:55;17.88;;;11.30;;
12493;SDS011;8260;51.422;6.786;2022-10-31T04:05:27;15.48;;;11.70;;
12493;SDS011;8260;51.422;6.786;2022-10-31T04:07:57;14.30;;;11.25;;
12493;SDS011;8260;51.422;6.786;2022-10-31T04:10:26;15.60;;;10.40;;
12493;SDS011;8260;51.422;6.786;2022-10-31T04:13:00;14.93;;;10.60;;
12493;SDS011;8260;51.422;6.786;2022-10-31T04:15:29;14.75;;;10.88;;
12493;SDS011;8260;51.422;6.786;2022-10-31T04:17:59;14.70;;;9.48;;
12493;SDS011;8260;51.422;6.786;2022-10-31T04:20:31;16.00;;;10.45;;
12493;SDS011;8260;51.422;6.786;2022-10-31T04:22:59;13.90;;;10.75;;
12493;SDS011;8260;51.422;6.786;2022-10-31T04:25:28;14.15;;;9.98;;
12493;SDS011;8260;51.422;6.786;2022-10-31T04:27:57;13.25;;;9.82;;
12493;SDS011;8260;51.422;6.786;2022-10-31T04:30:26;13.88;;;10.65;;
12493;SDS011;8260;51.422;6.786;2022-10-31T04:32:54;14.90;;;10.40;;
12493;SDS011;8260;51.422;6.786;2022-10-31T04:35:23;17.58;;;11.35;;
12493;SDS011;8260;51.422;6.786;2022-10-31T04:37:53;16.80;;;10.65;;
12493;SDS011;8260;51.422;6.786;2022-10-31T04:40:21;18.50;;;10.27;;
12493;SDS011;8260;51.422;6.786;2022-10-31T04:42:49;13.70;;;10.23;;
12493;SDS011;8260;51.422;6.786;2022-10-31T04:45:18;16.67;;;11.32;;
12493;SDS011;8260;51.422;6.786;2022-10-31T04:47:46;21.75;;;12.15;;
12493;SDS011;8260;51.422;6.786;2022-10-31T04:50:15;16.05;;;11.77;;
12493;SDS011;8260;51.422;6.786;2022-10-31T04:52:44;19.63;;;13.00;;
12493;SDS011;8260;51.422;6.786;2022-10-31T04:55:14;15.88;;;11.77;;
12493;SDS011;8260;51.422;6.786;2022-10-31T04:57:42;15.95;;;10.80;;
12493;SDS011;8260;51.422;6.786;2022-10-31T05:00:11;17.10;;;11.98;;
12493;SDS011;8260;51.422;6.786;2022-10-31T05:02:43;16.30;;;11.13;;
12493;SDS011;8260;51.422;6.786;2022-10-31T05:05:12;15.77;;;10.93;;
12493;SDS011;8260;51.422;6.786;2022-10-31T05:07:41;17.73;;;11.32;;
12493;SDS011;8260;51.422;6.786;2022-10-31T05:10:11;15.48;;;11.43;;
12493;SDS011;8260;51.422;6.786;2022-10-31T05:12:46;18.15;;;10.82;;
12493;SDS011;8260;51.422;6.786;2022-10-31T05:15:15;16.80;;;10.95;;
12493;SDS011;8260;51.422;6.786;2022-10-31T05:17:44;14.90;;;10.52;;
12493;SDS011;8260;51.422;6.786;2022-10-31T05:20:12;15.48;;;10.10;;
12493;SDS011;8260;51.422;6.786;2022-10-31T05:22:41;15.95;;;10.80;;
12493;SDS011;8260;51.422;6.786;2022-10-31T05:25:10;17.60;;;10.98;;
12493;SDS011;8260;51.422;6.786;2022-10-31T05:27:39;16.38;;;12.05;;
12493;SDS011;8260;51.422;6.786;2022-10-31T05:30:09;14.35;;;11.38;;
12493;SDS011;8260;51.422;6.786;2022-10-31T05:32:39;16.80;;;11.60;;
12493;SDS011;8260;51.422;6.786;2022-10-31T05:35:08;19.15;;;11.18;;
12493;SDS011;8260;51.422;6.786;2022-10-31T05:37:36;19.65;;;10.52;;
12493;SDS011;8260;51.422;6.786;2022-10-31T05:40:06;13.60;;;10.70;;
12493;SDS011;8260;51.422;6.786;2022-10-31T05:42:35;17.98;;;11.38;;
12493;SDS011;8260;51.422;6.786;2022-10-31T05:45:03;16.60;;;10.57;;
12493;SDS011;8260;51.422;6.786;2022-10-31T05:47:33;18.23;;;11.15;;
12493;SDS011;8260;51.422;6.786;2022-10-31T05:50:02;19.67;;;11.25;;
12493;SDS011;8260;51.422;6.786;2022-10-31T05:52:30;16.80;;;10.93;;
12493;SDS011;8260;51.422;6.786;2022-10-31T05:54:58;15.45;;;11.85;;
12493;SDS011;8260;51.422;6.786;2022-10-31T05:57:27;17.55;;;11.25;;
12493;SDS011;8260;51.422;6.786;2022-10-31T05:59:56;15.07;;;11.23;;
12493;SDS011;8260;51.422;6.786;2022-10-31T06:02:24;18.15;;;11.95;;
12493;SDS011;8260;51.422;6.786;2022-10-31T06:04:54;15.38;;;10.50;;
12493;SDS011;8260;51.422;6.786;2022-10-31T06:07:22;16.85;;;10.50;;
12493;SDS011;8260;51.422;6.786;2022-10-31T06:09:51;16.38;;;11.07;;
12493;SDS011;8260;51.422;6.786;2022-10-31T06:12:19;14.95;;;10.35;;
12493;SDS011;8260;51.422;6.786;2022-10-31T06:14:48;16.10;;;10.70;;
12493;SDS011;8260;51.422;6.786;2022-10-31T06:17:16;15.10;;;9.60;;
12493;SDS011;8260;51.422;6.786;2022-10-31T06:19:44;16.60;;;10.70;;
12493;SDS011;8260;51.422;6.786;2022-10-31T06:22:14;18.17;;;11.07;;
12493;SDS011;8260;51.422;6.786;2022-10-31T06:24:42;17.98;;;11.05;;
12493;SDS011;8260;51.422;6.786;2022-10-31T06:27:11;17.58;;;10.40;;
12493;SDS011;8260;51.422;6.786;2022-10-31T06:29:39;15.02;;;10.38;;
12493;SDS011;8260;51.422;6.786;2022-10-31T06:32:09;15.90;;;11.05;;
12493;SDS011;8260;51.422;6.786;2022-10-31T06:34:38;14.25;;;9.65;;
12493;SDS011;8260;51.422;6.786;2022-10-31T06:37:06;15.68;;;11.52;;
12493;SDS011;8260;51.422;6.786;2022-10-31T06:39:36;15.82;;;11.50;;
12493;SDS011;8260;51.422;6.786;2022-10-31T06:42:05;15.38;;;11.23;;
12493;SDS011;8260;51.422;6.786;2022-10-31T06:44:33;18.55;;;11.45;;
12493;SDS011;8260;51.422;6.786;2022-10-31T06:47:01;15.07;;;10.73;;
12493;SDS011;8260;51.422;6.786;2022-10-31T06:49:30;14.35;;;10.88;;
12493;SDS011;8260;51.422;6.786;2022-10-31T06:51:58;14.68;;;10.93;;
12493;SDS011;8260;51.422;6.786;2022-10-31T06:54:26;17.90;;;11.93;;
12493;SDS011;8260;51.422;6.786;2022-10-31T06:56:56;15.70;;;11.48;;
12493;SDS011;8260;51.422;6.786;2022-10-31T06:59:24;20.52;;;11.27;;
12493;SDS011;8260;51.422;6.786;2022-10-31T07:01:53;16.83;;;11.38;;
12493;SDS011;8260;51.422;6.786;2022-10-31T07:04:21;16.52;;;10.70;;
12493;SDS011;8260;51.422;6.786;2022-10-31T07:06:50;19.27;;;12.32;;
12493;SDS011;8260;51.422;6.786;2022-10-31T07:09:19;17.40;;;10.90;;
12493;SDS011;8260;51.422;6.786;2022-10-31T07:11:47;17.85;;;12.35;;
12493;SDS011;8260;51.422;6.786;2022-10-31T07:14:17;26.15;;;12.55;;
12493;SDS011;8260;51.422;6.786;2022-10-31T07:16:47;18.25;;;12.50;;
12493;SDS011;8260;51.422;6.786;2022-10-31T07:19:16;22.48;;;12.50;;
12493;SDS011;8260;51.422;6.786;2022-10-31T07:21:44;17.30;;;11.80;;
12493;SDS011;8260;51.422;6.786;2022-10-31T07:24:12;17.77;;;10.63;;
12493;SDS011;8260;51.422;6.786;2022-10-31T07:26:41;17.58;;;12.05;;
12493;SDS011;8260;51.422;6.786;2022-10-31T07:29:12;19.73;;;11.23;;
12493;SDS011;8260;51.422;6.786;2022-10-31T07:31:41;14.38;;;10.07;;
12493;SDS011;8260;51.422;6.786;2022-10-31T07:34:10;15.82;;;10.80;;
12493;SDS011;8260;51.422;6.786;2022-10-31T07:36:38;16.65;;;10.95;;
12493;SDS011;8260;51.422;6.786;2022-10-31T07:39:07;14.65;;;10.65;;
12493;SDS011;8260;51.422;6.786;2022-10-31T07:41:35;15.50;;;10.32;;
12493;SDS011;8260;51.422;6.786;2022-10-31T07:44:03;15.40;;;9.90;;
12493;SDS011;8260;51.422;6.786;2022-10-31T07:46:32;16.60;;;10.57;;
12493;SDS011;8260;51.422;6.786;2022-10-31T07:49:02;15.90;;;10.23;;
12493;SDS011;8260;51.422;6.786;2022-10-31T07:51:30;14.48;;;10.40;;
12493;SDS011;8260;51.422;6.786;2022-10-31T07:53:58;19.85;;;11.13;;
12493;SDS011;8260;51.422;6.786;2022-10-31T07:56:27;16.27;;;10.40;;
12493;SDS011;8260;51.422;6.786;2022-10-31T07:58:55;16.45;;;10.88;;
12493;SDS011;8260;51.422;6.786;2022-10-31T08:01:24;17.23;;;11.55;;
12493;SDS011;8260;51.422;6.786;2022-10-31T08:03:52;20.98;;;12.00;;
12493;SDS011;8260;51.422;6.786;2022-10-31T08:06:22;13.88;;;11.10;;
12493;SDS011;8260;51.422;6.786;2022-10-31T08:08:50;14.35;;;11.23;;
12493;SDS011;8260;51.422;6.786;2022-10-31T08:11:19;17.23;;;11.40;;
12493;SDS011;8260;51.422;6.786;2022-10-31T08:13:47;14.93;;;11.35;;
12493;SDS011;8260;51.422;6.786;2022-10-31T08:16:15;17.95;;;11.90;;
12493;SDS011;8260;51.422;6.786;2022-10-31T08:18:44;15.43;;;11.57;;
12493;SDS011;8260;51.422;6.786;2022-10-31T08:21:12;18.00;;;12.25;;
12493;SDS011;8260;51.422;6.786;2022-10-31T08:23:42;18.35;;;12.27;;
12493;SDS011;8260;51.422;6.786;2022-10-31T08:26:10;16.55;;;12.30;;
12493;SDS011;8260;51.422;6.786;2022-10-31T08:28:39;16.75;;;12.05;;
12493;SDS011;8260;51.422;6.786;2022-10-31T08:31:07;19.60;;;13.77;;
12493;SDS011;8260;51.422;6.786;2022-10-31T08:33:36;21.88;;;12.90;;
12493;SDS011;8260;51.422;6.786;2022-10-31T08:36:05;17.08;;;11.93;;
12493;SDS011;8260;51.422;6.786;2022-10-31T08:38:33;16.35;;;11.82;;
12493;SDS011;8260;51.422;6.786;2022-10-31T08:41:04;19.00;;;12.98;;
12493;SDS011;8260;51.422;6.786;2022-10-31T08:43:32;16.65;;;11.93;;
12493;SDS011;8260;51.422;6.786;2022-10-31T08:46:01;16.38;;;11.95;;
12493;SDS011;8260;51.422;6.786;2022-10-31T08:48:29;21.02;;;12.63;;
12493;SDS011;8260;51.422;6.786;2022-10-31T08:50:58;18.75;;;13.05;;
12493;SDS011;8260;51.422;6.786;2022-10-31T08:53:27;21.27;;;14.18;;
12493;SDS011;8260;51.422;6.786;2022-10-31T08:55:56;21.55;;;14.88;;
12493;SDS011;8260;51.422;6.786;2022-10-31T08:58:25;23.75;;;13.60;;
12493;SDS011;8260;51.422;6.786;2022-10-31T09:00:54;19.83;;;14.50;;
12493;SDS011;8260;51.422;6.786;2022-10-31T09:03:28;22.75;;;14.82;;
12493;SDS011;8260;51.422;6.786;2022-10-31T09:05:57;22.17;;;15.65;;
12493;SDS011;8260;51.422;6.786;2022-10-31T09:08:26;23.75;;;14.95;;
12493;SDS011;8260;51.422;6.786;2022-10-31T09:10:55;21.10;;;13.52;;
12493;SDS011;8260;51.422;6.786;2022-10-31T09:13:26;23.58;;;15.77;;
12493;SDS011;8260;51.422;6.786;2022-10-31T09:15:57;20.05;;;15.20;;
12493;SDS011;8260;51.422;6.786;2022-10-31T09:18:26;16.65;;;13.52;;
12493;SDS011;8260;51.422;6.786;2022-10-31T09:20:56;21.05;;;14.75;;
12493;SDS011;8260;51.422;6.786;2022-10-31T09:23:25;19.27;;;14.73;;
12493;SDS011;8260;51.422;6.786;2022-10-31T09:25:54;21.67;;;14.20;;
12493;SDS011;8260;51.422;6.786;2022-10-31T09:28:23;22.50;;;14.25;;
12493;SDS011;8260;51.422;6.786;2022-10-31T09:30:53;22.17;;;14.25;;
12493;SDS011;8260;51.422;6.786;2022-10-31T09:33:23;25.67;;;14.80;;
12493;SDS011;8260;51.422;6.786;2022-10-31T09:35:51;21.00;;;13.82;;
12493;SDS011;8260;51.422;6.786;2022-10-31T09:38:20;21.55;;;14.15;;
12493;SDS011;8260;51.422;6.786;2022-10-31T09:40:51;24.90;;;14.32;;
12493;SDS011;8260;51.422;6.786;2022-10-31T09:43:25;25.10;;;14.88;;
12493;SDS011;8260;51.422;6.786;2022-10-31T09:45:58;18.75;;;13.13;;
12493;SDS011;8260;51.422;6.786;2022-10-31T09:48:31;17.52;;;13.23;;
12493;SDS011;8260;51.422;6.786;2022-10-31T09:51:04;19.67;;;13.73;;
12493;SDS011;8260;51.422;6.786;2022-10-31T09:53:36;22.98;;;14.68;;
12493;SDS011;8260;51.422;6.786;2022-10-31T09:56:07;25.55;;;13.48;;
12493;SDS011;8260;51.422;6.786;2022-10-31T09:58:38;22.85;;;14.98;;
12493;SDS011;8260;51.422;6.786;2022-10-31T10:01:13;19.80;;;14.07;;
12493;SDS011;8260;51.422;6.786;2022-10-31T10:03:46;17.67;;;12.20;;
12493;SDS011;8260;51.422;6.786;2022-10-31T10:06:17;23.85;;;15.00;;
12493;SDS011;8260;51.422;6.786;2022-10-31T10:08:47;22.55;;;14.90;;
12493;SDS011;8260;51.422;6.786;2022-10-31T10:11:20;21.27;;;14.10;;
12493;SDS011;8260;51.422;6.786;2022-10-31T10:13:56;24.27;;;15.65;;
12493;SDS011;8260;51.422;6.786;2022-10-31T10:16:31;22.58;;;15.73;;
12493;SDS011;8260;51.422;6.786;2022-10-31T10:19:07;24.50;;;15.63;;
12493;SDS011;8260;51.422;6.786;2022-10-31T10:21:42;27.10;;;16.40;;
12493;SDS011;8260;51.422;6.786;2022-10-31T10:24:19;27.00;;;16.02;;
12493;SDS011;8260;51.422;6.786;2022-10-31T10:26:51;21.00;;;14.70;;
12493;SDS011;8260;51.422;6.786;2022-10-31T10:29:27;27.42;;;16.50;;
12493;SDS011;8260;51.422;6.786;2022-10-31T10:32:00;26.52;;;15.32;;
12493;SDS011;8260;51.422;6.786;2022-10-31T10:34:30;27.67;;;17.15;;
12493;SDS011;8260;51.422;6.786;2022-10-31T10:37:03;34.38;;;15.93;;
12493;SDS011;8260;51.422;6.786;2022-10-31T10:39:33;22.50;;;15.85;;
12493;SDS011;8260;51.422;6.786;2022-10-31T10:42:04;26.30;;;15.82;;
12493;SDS011;8260;51.422;6.786;2022-10-31T10:44:53;27.10;;;16.88;;
12493;SDS011;8260;51.422;6.786;2022-10-31T10:47:41;24.95;;;14.82;;
12493;SDS011;8260;51.422;6.786;2022-10-31T10:50:12;21.17;;;15.60;;
12493;SDS011;8260;51.422;6.786;2022-10-31T10:52:43;23.63;;;15.43;;
12493;SDS011;8260;51.422;6.786;2022-10-31T10:55:17;24.25;;;15.65;;
12493;SDS011;8260;51.422;6.786;2022-10-31T10:57:53;27.73;;;16.67;;
12493;SDS011;8260;51.422;6.786;2022-10-31T11:00:25;25.23;;;16.13;;
12493;SDS011;8260;51.422;6.786;2022-10-31T11:02:55;22.95;;;14.88;;
12493;SDS011;8260;51.422;6.786;2022-10-31T11:05:24;22.67;;;14.90;;
12493;SDS011;8260;51.422;6.786;2022-10-31T11:07:54;28.50;;;15.88;;
12493;SDS011;8260;51.422;6.786;2022-10-31T11:10:23;25.23;;;16.98;;
12493;SDS011;8260;51.422;6.786;2022-10-31T11:12:59;23.63;;;15.55;;
12493;SDS011;8260;51.422;6.786;2022-10-31T11:15:30;25.35;;;14.60;;
12493;SDS011;8260;51.422;6.786;2022-10-31T11:18:00;25.40;;;15.52;;
12493;SDS011;8260;51.422;6.786;2022-10-31T11:20:30;22.98;;;13.45;;
12493;SDS011;8260;51.422;6.786;2022-10-31T11:23:04;26.52;;;16.67;;
12493;SDS011;8260;51.422;6.786;2022-10-31T11:25:34;19.80;;;13.50;;
12493;SDS011;8260;51.422;6.786;2022-10-31T11:28:03;23.48;;;14.02;;
12493;SDS011;8260;51.422;6.786;2022-10-31T11:30:35;23.42;;;14.63;;
12493;SDS011;8260;51.422;6.786;2022-10-31T11:33:05;21.13;;;14.57;;
12493;SDS011;8260;51.422;6.786;2022-10-31T11:35:34;23.85;;;13.80;;
12493;SDS011;8260;51.422;6.786;2022-10-31T11:38:07;18.30;;;13.50;;
12493;SDS011;8260;51.422;6.786;2022-10-31T11:40:36;22.60;;;14.23;;
12493;SDS011;8260;51.422;6.786;2022-10-31T11:43:04;22.02;;;14.43;;
12493;SDS011;8260;51.422;6.786;2022-10-31T11:45:33;17.50;;;12.82;;
12493;SDS011;8260;51.422;6.786;2022-10-31T11:48:12;18.73;;;12.27;;
12493;SDS011;8260;51.422;6.786;2022-10-31T11:50:48;23.20;;;13.40;;
12493;SDS011;8260;51.422;6.786;2022-10-31T11:53:19;20.98;;;12.60;;
12493;SDS011;8260;51.422;6.786;2022-10-31T11:55:50;22.55;;;12.25;;
12493;SDS011;8260;51.422;6.786;2022-10-31T11:58:28;17.60;;;11.27;;
12493;SDS011;8260;51.422;6.786;2022-10-31T12:00:57;18.98;;;12.35;;
12493;SDS011;8260;51.422;6.786;2022-10-31T12:06:12;15.35;;;10.43;;
12493;SDS011;8260;51.422;6.786;2022-10-31T12:08:41;20.02;;;10.25;;
12493;SDS011;8260;51.422;6.786;2022-10-31T12:11:11;15.23;;;10.10;;
12493;SDS011;8260;51.422;6.786;2022-10-31T12:13:46;16.30;;;10.85;;
12493;SDS011;8260;51.422;6.786;2022-10-31T12:16:19;17.40;;;10.73;;
12493;SDS011;8260;51.422;6.786;2022-10-31T12:18:55;19.77;;;9.02;;
12493;SDS011;8260;51.422;6.786;2022-10-31T12:21:30;16.77;;;9.45;;
12493;SDS011;8260;51.422;6.786;2022-10-31T12:24:05;13.73;;;9.15;;
12493;SDS011;8260;51.422;6.786;2022-10-31T12:26:41;14.88;;;9.38;;
12493;SDS011;8260;51.422;6.786;2022-10-31T12:29:18;14.68;;;9.32;;
12493;SDS011;8260;51.422;6.786;2022-10-31T12:31:50;16.30;;;9.27;;
12493;SDS011;8260;51.422;6.786;2022-10-31T12:37:18;13.88;;;8.65;;
12493;SDS011;8260;51.422;6.786;2022-10-31T12:39:51;13.85;;;8.75;;
12493;SDS011;8260;51.422;6.786;2022-10-31T12:42:23;15.48;;;8.45;;
12493;SDS011;8260;51.422;6.786;2022-10-31T12:45:02;16.85;;;8.25;;
12493;SDS011;8260;51.422;6.786;2022-10-31T12:47:36;19.25;;;8.80;;
12493;SDS011;8260;51.422;6.786;2022-10-31T12:53:07;16.98;;;8.07;;
12493;SDS011;8260;51.422;6.786;2022-10-31T12:55:41;14.88;;;8.20;;
12493;SDS011;8260;51.422;6.786;2022-10-31T12:58:13;14.50;;;8.50;;
12493;SDS011;8260;51.422;6.786;2022-10-31T13:00:43;13.88;;;9.18;;
12493;SDS011;8260;51.422;6.786;2022-10-31T13:03:19;14.43;;;8.15;;
12493;SDS011;8260;51.422;6.786;2022-10-31T13:05:51;14.02;;;7.30;;
12493;SDS011;8260;51.422;6.786;2022-10-31T13:08:24;14.10;;;8.60;;
12493;SDS011;8260;51.422;6.786;2022-10-31T13:10:56;16.50;;;9.00;;
12493;SDS011;8260;51.422;6.786;2022-10-31T13:13:31;13.40;;;8.05;;
12493;SDS011;8260;51.422;6.786;2022-10-31T13:16:02;11.85;;;7.53;;
12493;SDS011;8260;51.422;6.786;2022-10-31T13:18:33;11.77;;;7.88;;
12493;SDS011;8260;51.422;6.786;2022-10-31T13:21:03;9.73;;;7.05;;
12493;SDS011;8260;51.422;6.786;2022-10-31T13:23:36;12.77;;;7.07;;
12493;SDS011;8260;51.422;6.786;2022-10-31T13:26:22;11.30;;;7.35;;
12493;SDS011;8260;51.422;6.786;2022-10-31T13:28:54;14.10;;;7.53;;
12493;SDS011;8260;51.422;6.786;2022-10-31T13:31:24;15.60;;;7.65;;
12493;SDS011;8260;51.422;6.786;2022-10-31T13:33:53;9.68;;;7.18;;
12493;SDS011;8260;51.422;6.786;2022-10-31T13:36:24;14.00;;;6.70;;
12493;SDS011;8260;51.422;6.786;2022-10-31T13:38:56;12.82;;;6.70;;
12493;SDS011;8260;51.422;6.786;2022-10-31T13:41:33;11.32;;;6.00;;
12493;SDS011;8260;51.422;6.786;2022-10-31T13:44:14;12.52;;;6.38;;
12493;SDS011;8260;51.422;6.786;2022-10-31T13:46:44;7.97;;;5.40;;
12493;SDS011;8260;51.422;6.786;2022-10-31T13:52:11;7.72;;;4.50;;
12493;SDS011;8260;51.422;6.786;2022-10-31T13:54:42;7.65;;;4.80;;
12493;SDS011;8260;51.422;6.786;2022-10-31T13:57:16;9.77;;;4.45;;
12493;SDS011;8260;51.422;6.786;2022-10-31T13:59:49;7.45;;;4.22;;
12493;SDS011;8260;51.422;6.786;2022-10-31T14:02:20;9.77;;;4.70;;
12493;SDS011;8260;51.422;6.786;2022-10-31T14:04:50;8.63;;;4.43;;
12493;SDS011;8260;51.422;6.786;2022-10-31T14:07:24;12.98;;;4.57;;
12493;SDS011;8260;51.422;6.786;2022-10-31T14:09:56;8.23;;;4.72;;
12493;SDS011;8260;51.422;6.786;2022-10-31T14:12:27;9.02;;;4.18;;
12493;SDS011;8260;51.422;6.786;2022-10-31T14:14:57;9.95;;;5.28;;
12493;SDS011;8260;51.422;6.786;2022-10-31T14:17:27;8.95;;;4.20;;
12493;SDS011;8260;51.422;6.786;2022-10-31T14:19:59;13.25;;;4.63;;
12493;SDS011;8260;51.422;6.786;2022-10-31T14:22:29;9.35;;;4.65;;
12493;SDS011;8260;51.422;6.786;2022-10-31T14:27:47;10.27;;;4.63;;
12493;SDS011;8260;51.422;6.786;2022-10-31T14:30:16;8.73;;;4.25;;
12493;SDS011;8260;51.422;6.786;2022-10-31T14:32:47;11.70;;;4.60;;
12493;SDS011;8260;51.422;6.786;2022-10-31T14:35:17;9.02;;;4.28;;
12493;SDS011;8260;51.422;6.786;2022-10-31T14:37:56;9.10;;;4.72;;
12493;SDS011;8260;51.422;6.786;2022-10-31T14:40:29;10.38;;;4.05;;
12493;SDS011;8260;51.422;6.786;2022-10-31T14:43:13;7.63;;;4.30;;
12493;SDS011;8260;51.422;6.786;2022-10-31T14:45:45;8.55;;;3.80;;
12493;SDS011;8260;51.422;6.786;2022-10-31T14:48:21;9.95;;;4.57;;
12493;SDS011;8260;51.422;6.786;2022-10-31T14:50:52;10.10;;;4.60;;
12493;SDS011;8260;51.422;6.786;2022-10-31T14:53:22;8.18;;;4.60;;
12493;SDS011;8260;51.422;6.786;2022-10-31T14:55:52;9.68;;;4.07;;
12493;SDS011;8260;51.422;6.786;2022-10-31T14:58:23;7.35;;;4.57;;
12493;SDS011;8260;51.422;6.786;2022-10-31T15:00:53;9.07;;;4.30;;
12493;SDS011;8260;51.422;6.786;2022-10-31T15:03:23;10.05;;;4.47;;
12493;SDS011;8260;51.422;6.786;2022-10-31T15:05:53;8.45;;;4.47;;
12493;SDS011;8260;51.422;6.786;2022-10-31T15:08:26;7.93;;;4.32;;
12493;SDS011;8260;51.422;6.786;2022-10-31T15:10:55;11.23;;;4.63;;
12493;SDS011;8260;51.422;6.786;2022-10-31T15:13:24;9.57;;;4.72;;
12493;SDS011;8260;51.422;6.786;2022-10-31T15:15:54;8.93;;;4.00;;
12493;SDS011;8260;51.422;6.786;2022-10-31T15:18:24;11.32;;;4.32;;